Time;durP1;ratioP1;P1;durP2;ratioP2;P2;SDS_P1;SDS_P2;PMS_P1;PMS_P2;Temp;Humidity;BMP_temperature;BMP_pressure;BME280_temperature;BME280_humidity;BME280_pressure;Samples;Min_cycle;Max_cycle;Signal;HPM_P1;HPM_P2
2023/06/22 00:00:07;;;;;;;;;;;;;;;;;;5086323;28;19919;-41
2023/06/22 00:02:33;;;;;;;;;;;;;;;;;;5087099;28;19918;-40
2023/06/22 05:09:06;;;;;;;;;;;;;;;;;;5082005;28;19923;-40
2023/06/22 05:11:32;;;;;;;;;;;;;;;;;;5087472;28;19924;-40
2023/06/22 05:13:59;;;;;;;;;;;;;;;;;;5087207;28;19981;-40
2023/06/22 05:16:25;;;;;;;;;;;;;;;;;;5087577;28;19994;-40
2023/06/22 05:18:51;;;;;;;;;;;;;;;;;;5087599;28;20007;-39
2023/06/22 05:21:17;;;;;;;;;;;;;;;;;;5087622;28;19904;-40
2023/06/22 05:23:59;;;;;;;;;;;;;;;;;;5080146;28;19958;-40
2023/06/22 05:26:25;;;;;;;;;;;;;;;;;;5064930;28;19908;-40
2023/06/22 05:28:51;;;;;;;;;;;;;;;;;;5065659;28;19915;-40
2023/06/22 05:31:20;;;;;;;;;;;;;;;;;;5065937;28;20316;-40
2023/06/22 05:33:45;;;;;;;;;;;;;;;;;;5085624;28;19935;-40
2023/06/22 05:36:12;;;;;;;;;;;;;;;;;;5085498;28;19912;-40
2023/06/22 05:38:38;;;;;;;;;;;;;;;;;;5085406;28;19915;-40
2023/06/22 05:41:04;;;;;;;;;;;;;;;;;;5085688;28;19916;-40
2023/06/22 05:43:30;;;;;;;;;;;;;;;;;;5085957;28;19908;-40
2023/06/22 05:45:57;;;;;;;;;;;;;;;;;;5067178;28;19996;-39
2023/06/22 05:48:23;;;;;;;;;;;;;;;;;;5088660;28;19919;-40
2023/06/22 05:50:49;;;;;;;;;;;;;;;;;;5089637;28;20094;-40
2023/06/22 05:53:15;;;;;;;;;;;;;;;;;;5089638;28;19911;-40
2023/06/22 05:55:42;;;;;;;;;;;;;;;;;;5085140;28;19912;-41
2023/06/22 05:58:08;;;;;;;;;;;;;;;;;;5090696;28;19931;-41
2023/06/22 06:00:34;;;;;;;;;;;;;;;;;;5089985;28;19913;-41
2023/06/22 06:03:03;;;;;;;;;;;;;;;;;;5090453;28;20608;-40
2023/06/22 06:05:29;;;;;;;;;;;;;;;;;;5090833;28;20065;-40
2023/06/22 06:07:55;;;;;;;;;;;;;;;;;;5090213;28;20409;-40
2023/06/22 06:10:21;;;;;;;;;;;;;;;;;;5088924;28;19938;-40
2023/06/22 06:12:47;;;;;;;;;;;;;;;;;;5090483;28;19958;-40
2023/06/22 06:15:13;;;;;;;;;;;;;;;;;;5085655;28;20274;-40
2023/06/22 06:17:39;;;;;;;;;;;;;;;;;;5069762;28;19912;-40
2023/06/22 06:20:07;;;;;;;;;;;;;;;;;;5070268;28;19912;-40
2023/06/22 06:22:32;;;;;;;;;;;;;;;;;;5083134;28;20443;-40
2023/06/22 06:24:58;;;;;;;;;;;;;;;;;;5084858;28;20058;-40
2023/06/22 06:27:29;;;;;;;;;;;;;;;;;;5070411;28;19912;-40
2023/06/22 06:29:54;;;;;;;;;;;;;;;;;;5068994;28;19916;-41
2023/06/22 06:32:20;;;;;;;;;;;;;;;;;;5088353;28;19973;-40
2023/06/22 06:34:46;;;;;;;;;;;;;;;;;;5070867;28;19912;-41
2023/06/22 06:37:12;;;;;;;;;;;;;;;;;;5070229;28;19909;-40
2023/06/22 06:39:38;;;;;;;;;;;;;;;;;;5069990;28;19920;-41
2023/06/22 06:42:04;;;;;;;;;;;;;;;;;;5085470;28;19916;-40
2023/06/22 06:44:30;;;;;;;;;;;;;;;;;;5089358;28;19915;-40
2023/06/22 06:46:56;;;;;;;;;;;;;;;;;;5090139;28;19930;-40
2023/06/22 06:49:22;;;;;;;;;;;;;;;;;;5088743;28;19927;-40
2023/06/22 06:51:48;;;;;;;;;;;;;;;;;;5088655;28;19912;-40
2023/06/22 06:54:14;;;;;;;;;;;;;;;;;;5090058;28;19916;-40
2023/06/22 06:56:40;;;;;;;;;;;;;;;;;;5088364;28;19970;-41
2023/06/22 06:59:06;;;;;;;;;;;;;;;;;;5088541;28;19912;-40
2023/06/22 07:01:33;;;;;;;;;;;;;;;;;;5078765;28;19916;-40
2023/06/22 07:03:59;;;;;;;;;;;;;;;;;;5070163;28;19920;-40
2023/06/22 07:06:28;;;;;;;;;;;;;;;;;;5069833;28;20401;-40
2023/06/22 07:08:55;;;;;;;;;;;;;;;;;;5086541;28;19959;-40
2023/06/22 07:11:20;;;;;;;;;;;;;;;;;;5080197;28;19955;-40
2023/06/22 07:13:46;;;;;;;;;;;;;;;;;;5073409;28;19956;-40
2023/06/22 07:16:12;;;;;;;;;;;;;;;;;;5094879;28;19914;-40
2023/06/22 07:18:38;;;;;;;;;;;;;;;;;;5078431;28;19934;-40
2023/06/22 07:21:06;;;;;;;;;;;;;;;;;;5075381;28;19920;-40
2023/06/22 07:23:32;;;;;;;;;;;;;;;;;;5085297;28;19916;-40
2023/06/22 07:26:01;;;;;;;;;;;;;;;;;;5082491;28;20293;-40
2023/06/22 07:28:27;;;;;;;;;;;;;;;;;;5086445;28;19923;-40
2023/06/22 07:30:53;;;;;;;;;;;;;;;;;;5076050;28;19912;-40
2023/06/22 07:33:19;;;;;;;;;;;;;;;;;;5088831;28;19919;-40
2023/06/22 07:35:47;;;;;;;;;;;;;;;;;;5094090;28;19915;-41
2023/06/22 07:38:14;;;;;;;;;;;;;;;;;;5105905;28;19990;-40
2023/06/22 07:40:41;;;;;;;;;;;;;;;;;;5068076;28;20240;-40
2023/06/22 07:43:07;;;;;;;;;;;;;;;;;;5072745;28;20072;-41
2023/06/22 07:45:36;;;;;;;;;;;;;;;;;;5086132;28;19993;-40
2023/06/22 07:48:02;;;;;;;;;;;;;;;;;;5087168;28;20308;-40
2023/06/22 07:50:29;;;;;;;;;;;;;;;;;;5086662;28;19908;-40
2023/06/22 07:52:55;;;;;;;;;;;;;;;;;;5071690;28;19920;-41
2023/06/22 07:55:20;;;;;;;;;;;;;;;;;;5067453;28;19917;-40
2023/06/22 07:57:46;;;;;;;;;;;;;;;;;;5066978;28;20308;-40
2023/06/22 08:00:15;;;;;;;;;;;;;;;;;;5077897;28;19916;-40
2023/06/22 08:02:41;;;;;;;;;;;;;;;;;;5088162;28;19912;-40
2023/06/22 08:05:08;;;;;;;;;;;;;;;;;;5073576;28;19913;-40
2023/06/22 08:07:37;;;;;;;;;;;;;;;;;;5088272;28;20271;-40
2023/06/22 08:10:03;;;;;;;;;;;;;;;;;;5087018;28;19955;-41
2023/06/22 08:12:29;;;;;;;;;;;;;;;;;;5076066;28;20360;-40
2023/06/22 08:14:55;;;;;;;;;;;;;;;;;;5067316;28;19923;-41
2023/06/22 08:17:21;;;;;;;;;;;;;;;;;;5069981;28;20538;-40
2023/06/22 08:19:47;;;;;;;;;;;;;;;;;;5074280;28;19912;-40
2023/06/22 08:22:12;;;;;;;;;;;;;;;;;;5085335;28;19912;-40
2023/06/22 08:24:38;;;;;;;;;;;;;;;;;;5087427;28;19977;-41
2023/06/22 08:27:08;;;;;;;;;;;;;;;;;;5085231;28;20223;-40
2023/06/22 08:29:34;;;;;;;;;;;;;;;;;;5070449;28;20023;-41
2023/06/22 08:32:00;;;;;;;;;;;;;;;;;;5078445;28;20373;-40
2023/06/22 08:34:27;;;;;;;;;;;;;;;;;;5073277;28;19932;-40
2023/06/22 08:36:53;;;;;;;;;;;;;;;;;;5067080;28;19908;-41
2023/06/22 08:39:20;;;;;;;;;;;;;;;;;;5066689;28;19916;-40
2023/06/22 08:41:45;;;;;;;;;;;;;;;;;;5066781;28;19912;-40
2023/06/22 08:44:11;;;;;;;;;;;;;;;;;;5086640;28;20506;-41
2023/06/22 08:46:38;;;;;;;;;;;;;;;;;;5087745;28;19912;-40
2023/06/22 08:49:04;;;;;;;;;;;;;;;;;;5087091;28;19908;-41
2023/06/22 08:51:30;;;;;;;;;;;;;;;;;;5085453;28;19916;-41
2023/06/22 08:53:56;;;;;;;;;;;;;;;;;;5068836;28;19969;-40
2023/06/22 08:56:22;;;;;;;;;;;;;;;;;;5066836;28;19909;-41
2023/06/22 08:58:48;;;;;;;;;;;;;;;;;;5066592;28;19977;-40
2023/06/22 09:01:16;;;;;;;;;;;;;;;;;;5066314;28;19916;-40
2023/06/22 09:03:43;;;;;;;;;;;;;;;;;;5066503;28;20546;-40
2023/06/22 09:06:09;;;;;;;;;;;;;;;;;;5067361;28;19962;-40
2023/06/22 09:08:35;;;;;;;;;;;;;;;;;;5066768;28;19912;-40
2023/06/22 09:11:01;;;;;;;;;;;;;;;;;;5071726;28;20000;-40
2023/06/22 09:13:27;;;;;;;;;;;;;;;;;;5066415;28;19916;-40
2023/06/22 09:15:53;;;;;;;;;;;;;;;;;;5077608;28;20344;-40
2023/06/22 09:18:19;;;;;;;;;;;;;;;;;;5084807;28;20003;-42
2023/06/22 09:20:45;;;;;;;;;;;;;;;;;;5080068;28;19916;-40
2023/06/22 09:23:11;;;;;;;;;;;;;;;;;;5078630;28;19917;-40
2023/06/22 09:25:37;;;;;;;;;;;;;;;;;;5084986;28;19916;-40
2023/06/22 09:28:03;;;;;;;;;;;;;;;;;;5086660;28;19908;-41
2023/06/22 09:30:28;;;;;;;;;;;;;;;;;;5086631;28;19912;-40
2023/06/22 09:32:54;;;;;;;;;;;;;;;;;;5076051;28;20023;-40
2023/06/22 09:35:20;;;;;;;;;;;;;;;;;;5087119;28;19947;-41
2023/06/22 09:37:46;;;;;;;;;;;;;;;;;;5084794;28;20010;-40
2023/06/22 09:40:13;;;;;;;;;;;;;;;;;;5084431;28;19960;-40
2023/06/22 09:42:38;;;;;;;;;;;;;;;;;;5084243;28;19920;-41
2023/06/22 09:45:04;;;;;;;;;;;;;;;;;;5079232;28;19919;-40
2023/06/22 09:47:30;;;;;;;;;;;;;;;;;;5078901;28;20423;-40
2023/06/22 09:49:58;;;;;;;;;;;;;;;;;;5084377;28;19924;-40
2023/06/22 09:52:25;;;;;;;;;;;;;;;;;;5085473;28;20392;-40
2023/06/22 09:54:51;;;;;;;;;;;;;;;;;;5085315;28;19920;-40
2023/06/22 09:57:17;;;;;;;;;;;;;;;;;;5083337;28;19919;-40
2023/06/22 09:59:43;;;;;;;;;;;;;;;;;;5084153;28;19916;-40
2023/06/22 10:02:09;;;;;;;;;;;;;;;;;;5084679;28;19916;-40
2023/06/22 10:04:35;;;;;;;;;;;;;;;;;;5086570;28;19912;-40
2023/06/22 10:07:01;;;;;;;;;;;;;;;;;;5086863;28;20018;-40
2023/06/22 10:09:27;;;;;;;;;;;;;;;;;;5086084;28;19912;-40
2023/06/22 10:11:53;;;;;;;;;;;;;;;;;;5086708;28;20436;-42
2023/06/22 10:14:19;;;;;;;;;;;;;;;;;;5086692;28;19931;-40
2023/06/22 10:16:45;;;;;;;;;;;;;;;;;;5086526;28;20459;-41
2023/06/22 10:19:11;;;;;;;;;;;;;;;;;;5083994;28;20007;-41
2023/06/22 10:21:37;;;;;;;;;;;;;;;;;;5084603;28;19912;-40
2023/06/22 10:24:05;;;;;;;;;;;;;;;;;;5084661;28;20334;-40
2023/06/22 10:26:31;;;;;;;;;;;;;;;;;;5084135;28;19919;-40
2023/06/22 10:28:58;;;;;;;;;;;;;;;;;;5084391;28;19908;-41
2023/06/22 10:31:24;;;;;;;;;;;;;;;;;;5085648;28;20304;-40
2023/06/22 10:33:50;;;;;;;;;;;;;;;;;;5086973;28;19912;-40
2023/06/22 10:36:16;;;;;;;;;;;;;;;;;;5088194;28;20321;-41
2023/06/22 10:38:42;;;;;;;;;;;;;;;;;;5087985;28;19912;-41
2023/06/22 10:41:08;;;;;;;;;;;;;;;;;;5087592;28;19931;-40
2023/06/22 10:43:34;;;;;;;;;;;;;;;;;;5088158;28;19909;-40
2023/06/22 10:45:59;;;;;;;;;;;;;;;;;;5087886;28;19994;-39
2023/06/22 10:48:25;;;;;;;;;;;;;;;;;;5087721;28;19912;-40
2023/06/22 10:50:53;;;;;;;;;;;;;;;;;;5088396;28;20065;-40
2023/06/22 10:53:19;;;;;;;;;;;;;;;;;;5082595;28;19920;-42
2023/06/22 10:55:44;;;;;;;;;;;;;;;;;;5071358;28;19913;-41
2023/06/22 10:58:10;;;;;;;;;;;;;;;;;;5069347;28;19909;-41
2023/06/22 11:00:36;;;;;;;;;;;;;;;;;;5067970;28;19982;-41
2023/06/22 11:03:02;;;;;;;;;;;;;;;;;;5077907;28;19982;-43
2023/06/22 11:05:28;;;;;;;;;;;;;;;;;;5082844;28;20465;-41
2023/06/22 11:07:54;;;;;;;;;;;;;;;;;;5069751;28;19915;-42
2023/06/22 11:10:20;;;;;;;;;;;;;;;;;;5069020;28;19916;-41
2023/06/22 11:12:46;;;;;;;;;;;;;;;;;;5069132;28;20826;-40
2023/06/22 11:15:12;;;;;;;;;;;;;;;;;;5069150;28;19962;-41
2023/06/22 11:17:38;;;;;;;;;;;;;;;;;;5084353;28;20560;-41
2023/06/22 11:20:10;;;;;;;;;;;;;;;;;;5068737;28;19913;-41
2023/06/22 11:22:36;;;;;;;;;;;;;;;;;;5069534;28;19913;-41
2023/06/22 11:25:02;;;;;;;;;;;;;;;;;;5077966;28;20313;-40
2023/06/22 11:27:28;;;;;;;;;;;;;;;;;;5087776;28;19908;-40
2023/06/22 11:29:54;;;;;;;;;;;;;;;;;;5085803;28;19908;-40
2023/06/22 11:32:20;;;;;;;;;;;;;;;;;;5087745;28;19912;-40
2023/06/22 11:34:47;;;;;;;;;;;;;;;;;;5084709;28;20004;-40
2023/06/22 11:37:13;;;;;;;;;;;;;;;;;;5066604;28;19912;-40
2023/06/22 11:39:39;;;;;;;;;;;;;;;;;;5080405;28;19912;-41
2023/06/22 11:42:05;;;;;;;;;;;;;;;;;;5085985;28;19943;-41
2023/06/22 11:44:31;;;;;;;;;;;;;;;;;;5085203;28;19926;-41
2023/06/22 11:46:57;;;;;;;;;;;;;;;;;;5099895;28;20374;-40
2023/06/22 11:49:23;;;;;;;;;;;;;;;;;;5092850;28;20477;-41
2023/06/22 11:51:50;;;;;;;;;;;;;;;;;;5086839;28;19916;-41
2023/06/22 11:54:17;;;;;;;;;;;;;;;;;;5085544;28;20018;-41
2023/06/22 11:56:43;;;;;;;;;;;;;;;;;;5086338;28;19912;-41
2023/06/22 11:59:10;;;;;;;;;;;;;;;;;;5085270;28;19908;-40
2023/06/22 12:01:36;;;;;;;;;;;;;;;;;;5086580;28;19916;-41
2023/06/22 12:04:05;;;;;;;;;;;;;;;;;;5086434;28;20268;-41
2023/06/22 12:06:31;;;;;;;;;;;;;;;;;;5086179;28;19935;-40
2023/06/22 12:08:58;;;;;;;;;;;;;;;;;;5083703;28;19916;-41
2023/06/22 12:11:23;;;;;;;;;;;;;;;;;;5085268;28;20472;-40
2023/06/22 12:13:49;;;;;;;;;;;;;;;;;;5084520;28;20011;-42
2023/06/22 12:16:15;;;;;;;;;;;;;;;;;;5074996;28;19916;-41
2023/06/22 12:18:42;;;;;;;;;;;;;;;;;;5074855;28;19912;-41
2023/06/22 12:21:08;;;;;;;;;;;;;;;;;;5085189;28;20463;-42
2023/06/22 12:23:34;;;;;;;;;;;;;;;;;;5084486;28;20191;-43
2023/06/22 12:26:01;;;;;;;;;;;;;;;;;;5084399;28;19908;-41
2023/06/22 12:28:27;;;;;;;;;;;;;;;;;;5079401;28;20498;-43
2023/06/22 12:30:53;;;;;;;;;;;;;;;;;;5065121;28;19947;-40
2023/06/22 12:33:19;;;;;;;;;;;;;;;;;;5063927;28;19938;-40
2023/06/22 12:35:45;;;;;;;;;;;;;;;;;;5045856;28;19912;-39
2023/06/22 12:38:11;;;;;;;;;;;;;;;;;;5064693;28;19996;-40
2023/06/22 12:40:37;;;;;;;;;;;;;;;;;;5082966;28;20022;-39
2023/06/22 12:43:02;;;;;;;;;;;;;;;;;;5066471;28;19919;-39
2023/06/22 12:45:31;;;;;;;;;;;;;;;;;;5083676;28;19916;-40
2023/06/22 12:47:57;;;;;;;;;;;;;;;;;;5082902;28;19994;-40
2023/06/22 12:50:23;;;;;;;;;;;;;;;;;;5065262;28;19924;-39
2023/06/22 12:52:49;;;;;;;;;;;;;;;;;;5082064;28;19962;-39
2023/06/22 12:55:15;;;;;;;;;;;;;;;;;;5104208;28;20033;-40
2023/06/22 12:57:40;;;;;;;;;;;;;;;;;;5103079;28;19915;-39
2023/06/22 13:00:08;;;;;;;;;;;;;;;;;;5070339;28;19923;-40
2023/06/22 13:02:35;;;;;;;;;;;;;;;;;;5063552;28;19908;-40
2023/06/22 13:05:01;;;;;;;;;;;;;;;;;;5064087;28;19909;-40
2023/06/22 13:07:27;;;;;;;;;;;;;;;;;;5081049;28;20164;-40
2023/06/22 13:09:53;;;;;;;;;;;;;;;;;;5062662;28;20498;-41
2023/06/22 13:12:19;;;;;;;;;;;;;;;;;;5067683;28;19916;-39
2023/06/22 13:14:46;;;;;;;;;;;;;;;;;;5063445;28;19970;-39
2023/06/22 13:17:13;;;;;;;;;;;;;;;;;;5065470;28;19912;-40
2023/06/22 13:19:39;;;;;;;;;;;;;;;;;;5063838;28;20297;-41
2023/06/22 13:22:05;;;;;;;;;;;;;;;;;;5083674;28;19930;-38
2023/06/22 13:24:31;;;;;;;;;;;;;;;;;;5082446;28;19912;-38
2023/06/22 13:26:57;;;;;;;;;;;;;;;;;;5084535;28;19970;-38
2023/06/22 13:29:23;;;;;;;;;;;;;;;;;;5056202;28;20003;-37
2023/06/22 13:31:49;;;;;;;;;;;;;;;;;;5079647;28;20295;-37
2023/06/22 13:34:15;;;;;;;;;;;;;;;;;;5083297;28;19916;-36
2023/06/22 13:36:40;;;;;;;;;;;;;;;;;;5084546;28;20331;-37
2023/06/22 13:39:07;;;;;;;;;;;;;;;;;;5063794;28;19915;-37
2023/06/22 13:41:33;;;;;;;;;;;;;;;;;;5068093;28;19963;-37
2023/06/22 13:43:59;;;;;;;;;;;;;;;;;;5085846;28;19958;-37
2023/06/22 13:46:25;;;;;;;;;;;;;;;;;;5084055;28;19912;-37
2023/06/22 13:48:51;;;;;;;;;;;;;;;;;;5078428;28;19938;-37
2023/06/22 13:51:17;;;;;;;;;;;;;;;;;;5086024;28;19924;-37
2023/06/22 13:53:43;;;;;;;;;;;;;;;;;;5085782;28;19916;-37
2023/06/22 13:56:09;;;;;;;;;;;;;;;;;;5085813;28;19934;-37
2023/06/22 13:58:35;;;;;;;;;;;;;;;;;;5068561;28;19912;-37
2023/06/22 14:01:01;;;;;;;;;;;;;;;;;;5083330;28;19908;-37
2023/06/22 14:03:27;;;;;;;;;;;;;;;;;;5085949;28;19982;-37
2023/06/22 14:05:55;;;;;;;;;;;;;;;;;;5086536;28;19916;-37
2023/06/22 14:08:23;;;;;;;;;;;;;;;;;;5074640;28;19977;-37
2023/06/22 14:10:49;;;;;;;;;;;;;;;;;;5069518;28;19920;-37
2023/06/22 14:13:15;;;;;;;;;;;;;;;;;;5069389;28;19916;-37
2023/06/22 14:15:41;;;;;;;;;;;;;;;;;;5069395;28;19916;-37
2023/06/22 14:18:07;;;;;;;;;;;;;;;;;;5078226;28;19916;-37
2023/06/22 14:20:33;;;;;;;;;;;;;;;;;;5068994;28;19913;-37
2023/06/22 14:22:59;;;;;;;;;;;;;;;;;;5069417;28;20066;-37
2023/06/22 14:25:25;;;;;;;;;;;;;;;;;;5078770;28;19912;-37
2023/06/22 14:27:51;;;;;;;;;;;;;;;;;;5088788;28;19916;-37
2023/06/22 14:30:16;;;;;;;;;;;;;;;;;;5088699;28;19923;-37
2023/06/22 14:32:42;;;;;;;;;;;;;;;;;;5089130;28;20021;-37
2023/06/22 14:35:08;;;;;;;;;;;;;;;;;;5081403;28;19927;-37
2023/06/22 14:37:34;;;;;;;;;;;;;;;;;;5061024;28;19951;-37
2023/06/22 14:40:00;;;;;;;;;;;;;;;;;;5076155;28;19913;-40
2023/06/22 14:42:26;;;;;;;;;;;;;;;;;;5068781;28;19920;-39
2023/06/22 14:44:52;;;;;;;;;;;;;;;;;;5069229;28;19908;-38
2023/06/22 14:47:19;;;;;;;;;;;;;;;;;;5069164;28;19916;-38
2023/06/22 14:49:45;;;;;;;;;;;;;;;;;;5088631;28;20364;-38
2023/06/22 14:52:11;;;;;;;;;;;;;;;;;;5089254;28;19915;-38
2023/06/22 14:54:37;;;;;;;;;;;;;;;;;;5088582;28;19920;-38
2023/06/22 14:57:03;;;;;;;;;;;;;;;;;;5088056;28;20014;-38
2023/06/22 14:59:29;;;;;;;;;;;;;;;;;;5088399;28;19920;-39
2023/06/22 15:01:55;;;;;;;;;;;;;;;;;;5089356;28;19908;-39
2023/06/22 15:04:21;;;;;;;;;;;;;;;;;;5068231;28;19912;-39
2023/06/22 15:06:47;;;;;;;;;;;;;;;;;;5073225;28;19923;-38
2023/06/22 15:09:12;;;;;;;;;;;;;;;;;;5070283;28;19910;-39
2023/06/22 15:11:38;;;;;;;;;;;;;;;;;;5088373;28;19996;-38
2023/06/22 15:14:04;;;;;;;;;;;;;;;;;;5087212;28;19963;-38
2023/06/22 15:16:30;;;;;;;;;;;;;;;;;;5069273;28;19912;-39
2023/06/22 15:18:56;;;;;;;;;;;;;;;;;;5067907;28;19943;-39
2023/06/22 15:21:22;;;;;;;;;;;;;;;;;;5076418;28;19924;-38
2023/06/22 15:23:48;;;;;;;;;;;;;;;;;;5107796;28;19912;-38
2023/06/22 15:26:14;;;;;;;;;;;;;;;;;;5097362;28;19918;-38
2023/06/22 15:28:40;;;;;;;;;;;;;;;;;;5076127;28;19935;-38
2023/06/22 15:31:06;;;;;;;;;;;;;;;;;;5107023;28;20031;-38
2023/06/22 15:33:32;;;;;;;;;;;;;;;;;;5080948;28;19939;-38
2023/06/22 15:36:03;;;;;;;;;;;;;;;;;;5055993;28;19913;-38
2023/06/22 15:38:31;;;;;;;;;;;;;;;;;;5068652;28;19920;-38
2023/06/22 15:40:57;;;;;;;;;;;;;;;;;;5075362;28;19916;-38
2023/06/22 15:43:23;;;;;;;;;;;;;;;;;;5086601;28;19987;-38
2023/06/22 15:45:49;;;;;;;;;;;;;;;;;;5086210;28;19920;-38
2023/06/22 15:48:15;;;;;;;;;;;;;;;;;;5086144;28;20659;-38
2023/06/22 15:50:41;;;;;;;;;;;;;;;;;;5069159;28;19973;-38
2023/06/22 15:53:06;;;;;;;;;;;;;;;;;;5079956;28;20428;-38
2023/06/22 15:55:34;;;;;;;;;;;;;;;;;;5084290;28;19912;-38
2023/06/22 15:58:00;;;;;;;;;;;;;;;;;;5069851;28;19913;-38
2023/06/22 16:00:26;;;;;;;;;;;;;;;;;;5076165;28;20016;-38
2023/06/22 16:02:51;;;;;;;;;;;;;;;;;;5082050;28;19939;-38
2023/06/22 16:05:17;;;;;;;;;;;;;;;;;;5077194;28;19999;-38
2023/06/22 16:07:43;;;;;;;;;;;;;;;;;;5072907;28;20463;-37
2023/06/22 16:10:09;;;;;;;;;;;;;;;;;;5077548;28;19969;-37
2023/06/22 16:12:35;;;;;;;;;;;;;;;;;;5086339;28;19912;-38
2023/06/22 16:15:01;;;;;;;;;;;;;;;;;;5085804;28;19916;-38
2023/06/22 16:17:27;;;;;;;;;;;;;;;;;;5077474;28;19920;-37
2023/06/22 16:19:54;;;;;;;;;;;;;;;;;;5083313;28;19912;-38
2023/06/22 16:22:20;;;;;;;;;;;;;;;;;;5082439;28;20229;-38
2023/06/22 16:24:46;;;;;;;;;;;;;;;;;;5085992;28;19970;-38
2023/06/22 16:27:12;;;;;;;;;;;;;;;;;;5080159;28;20003;-37
2023/06/22 16:29:38;;;;;;;;;;;;;;;;;;5085800;28;20011;-37
2023/06/22 16:32:04;;;;;;;;;;;;;;;;;;5075361;28;20292;-37
2023/06/22 16:34:30;;;;;;;;;;;;;;;;;;5086321;28;20015;-37
2023/06/22 16:36:56;;;;;;;;;;;;;;;;;;5082887;28;19970;-37
2023/06/22 16:39:22;;;;;;;;;;;;;;;;;;5077968;28;19916;-37
2023/06/22 16:41:49;;;;;;;;;;;;;;;;;;5070610;28;19965;-37
2023/06/22 16:44:15;;;;;;;;;;;;;;;;;;5084541;28;19985;-37
2023/06/22 16:46:41;;;;;;;;;;;;;;;;;;5086185;28;20319;-37
2023/06/22 16:49:07;;;;;;;;;;;;;;;;;;5084947;28;20346;-37
2023/06/22 16:51:33;;;;;;;;;;;;;;;;;;5084048;28;19912;-37
2023/06/22 16:53:59;;;;;;;;;;;;;;;;;;5086141;28;19935;-37
2023/06/22 16:56:25;;;;;;;;;;;;;;;;;;5083254;28;19974;-37
2023/06/22 16:58:51;;;;;;;;;;;;;;;;;;5066447;28;19941;-37
2023/06/22 17:01:17;;;;;;;;;;;;;;;;;;5068047;28;19912;-37
2023/06/22 17:03:42;;;;;;;;;;;;;;;;;;5074537;28;20278;-37
2023/06/22 17:06:08;;;;;;;;;;;;;;;;;;5074851;28;19923;-37
2023/06/22 17:08:34;;;;;;;;;;;;;;;;;;5085412;28;20466;-37
2023/06/22 17:11:00;;;;;;;;;;;;;;;;;;5081390;28;19922;-37
2023/06/22 17:13:26;;;;;;;;;;;;;;;;;;5075636;28;19962;-37
2023/06/22 17:15:52;;;;;;;;;;;;;;;;;;5083773;28;20530;-37
2023/06/22 17:18:18;;;;;;;;;;;;;;;;;;5087411;28;19931;-37
2023/06/22 17:20:44;;;;;;;;;;;;;;;;;;5084622;28;19916;-37
2023/06/22 17:23:10;;;;;;;;;;;;;;;;;;5085567;28;19916;-37
2023/06/22 17:25:37;;;;;;;;;;;;;;;;;;5085234;28;19920;-37
2023/06/22 17:28:03;;;;;;;;;;;;;;;;;;5085206;28;20019;-37
2023/06/22 17:30:30;;;;;;;;;;;;;;;;;;5069946;28;20052;-37
2023/06/22 17:32:56;;;;;;;;;;;;;;;;;;5065357;28;19920;-37
2023/06/22 17:35:21;;;;;;;;;;;;;;;;;;5066395;28;19909;-37
2023/06/22 17:37:50;;;;;;;;;;;;;;;;;;5083380;28;20284;-37
2023/06/22 17:40:16;;;;;;;;;;;;;;;;;;5084647;28;19961;-37
2023/06/22 17:42:42;;;;;;;;;;;;;;;;;;5076205;28;19912;-37
2023/06/22 17:45:08;;;;;;;;;;;;;;;;;;5076490;28;20393;-37
2023/06/22 17:47:34;;;;;;;;;;;;;;;;;;5069611;28;19920;-37
2023/06/22 17:50:00;;;;;;;;;;;;;;;;;;5069405;28;19912;-37
2023/06/22 17:52:26;;;;;;;;;;;;;;;;;;5069388;28;19908;-37
2023/06/22 17:54:53;;;;;;;;;;;;;;;;;;5083959;28;20297;-37
2023/06/22 17:57:19;;;;;;;;;;;;;;;;;;5089477;28;20102;-37
2023/06/22 17:59:45;;;;;;;;;;;;;;;;;;5089414;28;20735;-37
2023/06/22 18:02:10;;;;;;;;;;;;;;;;;;5088229;28;19912;-37
2023/06/22 18:04:36;;;;;;;;;;;;;;;;;;5076560;28;20381;-37
2023/06/22 18:07:02;;;;;;;;;;;;;;;;;;5068165;28;19912;-37
2023/06/22 18:09:28;;;;;;;;;;;;;;;;;;5088807;28;20409;-37
2023/06/22 18:11:55;;;;;;;;;;;;;;;;;;5087662;28;19920;-37
2023/06/22 18:14:21;;;;;;;;;;;;;;;;;;5088171;28;20025;-37
2023/06/22 18:16:47;;;;;;;;;;;;;;;;;;5089344;28;20038;-37
2023/06/22 18:19:14;;;;;;;;;;;;;;;;;;5086670;28;20595;-37
2023/06/22 18:21:40;;;;;;;;;;;;;;;;;;5087984;28;20392;-37
2023/06/22 18:24:06;;;;;;;;;;;;;;;;;;5089088;28;19908;-37
2023/06/22 18:26:32;;;;;;;;;;;;;;;;;;5088309;28;20018;-37
2023/06/22 18:28:58;;;;;;;;;;;;;;;;;;5087709;28;20022;-37
2023/06/22 18:31:23;;;;;;;;;;;;;;;;;;5087504;28;19919;-37
2023/06/22 18:33:50;;;;;;;;;;;;;;;;;;5088257;28;20006;-37
2023/06/22 18:36:15;;;;;;;;;;;;;;;;;;5068431;28;19912;-37
2023/06/22 18:38:41;;;;;;;;;;;;;;;;;;5067897;28;20348;-37
2023/06/22 18:41:07;;;;;;;;;;;;;;;;;;5068492;28;19999;-37
2023/06/22 18:43:34;;;;;;;;;;;;;;;;;;5068423;28;20003;-37
2023/06/22 18:46:00;;;;;;;;;;;;;;;;;;5069027;28;19913;-37
2023/06/22 18:48:26;;;;;;;;;;;;;;;;;;5083673;28;20447;-37
2023/06/22 18:50:53;;;;;;;;;;;;;;;;;;5068745;28;19954;-37
2023/06/22 18:53:19;;;;;;;;;;;;;;;;;;5068248;28;19917;-37
2023/06/22 18:55:45;;;;;;;;;;;;;;;;;;5082999;28;20449;-37
2023/06/22 18:58:10;;;;;;;;;;;;;;;;;;5086579;28;20673;-37
2023/06/22 19:00:36;;;;;;;;;;;;;;;;;;5088407;28;20069;-37
2023/06/22 19:03:02;;;;;;;;;;;;;;;;;;5088252;28;19926;-37
2023/06/22 19:05:28;;;;;;;;;;;;;;;;;;5079007;28;20360;-37
2023/06/22 19:07:56;;;;;;;;;;;;;;;;;;5072646;28;19912;-37
2023/06/22 19:10:22;;;;;;;;;;;;;;;;;;5086736;28;19916;-37
2023/06/22 19:12:49;;;;;;;;;;;;;;;;;;5087152;28;20530;-37
2023/06/22 19:15:16;;;;;;;;;;;;;;;;;;5086777;28;19915;-37
2023/06/22 19:17:42;;;;;;;;;;;;;;;;;;5069179;28;19919;-38
2023/06/22 19:20:08;;;;;;;;;;;;;;;;;;5083825;28;19957;-38
2023/06/22 19:22:34;;;;;;;;;;;;;;;;;;5083196;28;19987;-38
2023/06/22 19:25:00;;;;;;;;;;;;;;;;;;5077764;28;20432;-38
2023/06/22 19:27:26;;;;;;;;;;;;;;;;;;5085763;28;19927;-38
2023/06/22 19:29:53;;;;;;;;;;;;;;;;;;5067577;28;20422;-38
2023/06/22 19:32:19;;;;;;;;;;;;;;;;;;5074742;28;19974;-38
2023/06/22 19:34:47;;;;;;;;;;;;;;;;;;5083507;28;20351;-38
2023/06/22 19:37:13;;;;;;;;;;;;;;;;;;5064583;28;20346;-38
2023/06/22 19:39:39;;;;;;;;;;;;;;;;;;5072849;28;19912;-38
2023/06/22 19:42:05;;;;;;;;;;;;;;;;;;5106854;28;19918;-38
2023/06/22 19:44:31;;;;;;;;;;;;;;;;;;5100153;28;19923;-38
2023/06/22 19:46:57;;;;;;;;;;;;;;;;;;5082513;28;20003;-38
2023/06/22 19:49:23;;;;;;;;;;;;;;;;;;5076848;28;19965;-38
2023/06/22 19:51:49;;;;;;;;;;;;;;;;;;5069428;28;19916;-38
2023/06/22 19:54:15;;;;;;;;;;;;;;;;;;5078929;28;19924;-38
2023/06/22 19:56:41;;;;;;;;;;;;;;;;;;5064496;28;20006;-38
2023/06/22 19:59:07;;;;;;;;;;;;;;;;;;5079826;28;19919;-38
2023/06/22 20:01:33;;;;;;;;;;;;;;;;;;5074282;28;20389;-38
2023/06/22 20:03:59;;;;;;;;;;;;;;;;;;5083347;28;20019;-38
2023/06/22 20:06:25;;;;;;;;;;;;;;;;;;5072879;28;20312;-38
2023/06/22 20:08:51;;;;;;;;;;;;;;;;;;5066267;28;19927;-38
2023/06/22 20:11:17;;;;;;;;;;;;;;;;;;5066974;28;19991;-38
2023/06/22 20:13:43;;;;;;;;;;;;;;;;;;5082588;28;20293;-38
2023/06/22 20:16:10;;;;;;;;;;;;;;;;;;5076355;28;20364;-38
2023/06/22 20:18:36;;;;;;;;;;;;;;;;;;5065203;28;19919;-38
2023/06/22 20:21:02;;;;;;;;;;;;;;;;;;5080340;28;20311;-38
2023/06/22 20:23:28;;;;;;;;;;;;;;;;;;5078595;28;19916;-38
2023/06/22 20:25:54;;;;;;;;;;;;;;;;;;5076420;28;20332;-38
2023/06/22 20:28:20;;;;;;;;;;;;;;;;;;5076122;28;19916;-38
2023/06/22 20:30:46;;;;;;;;;;;;;;;;;;5080176;28;20449;-38
2023/06/22 20:33:12;;;;;;;;;;;;;;;;;;5076209;28;20022;-38
2023/06/22 20:35:38;;;;;;;;;;;;;;;;;;5065603;28;19920;-38
2023/06/22 20:38:04;;;;;;;;;;;;;;;;;;5067808;28;19912;-39
2023/06/22 20:40:30;;;;;;;;;;;;;;;;;;5087426;28;19916;-38
2023/06/22 20:42:56;;;;;;;;;;;;;;;;;;5082265;28;20003;-38
2023/06/22 20:45:24;;;;;;;;;;;;;;;;;;5065378;28;20285;-38
2023/06/22 20:47:50;;;;;;;;;;;;;;;;;;5064027;28;20007;-38
2023/06/22 20:50:17;;;;;;;;;;;;;;;;;;5063816;28;20015;-38
2023/06/22 20:52:46;;;;;;;;;;;;;;;;;;5064545;28;20233;-38
2023/06/22 20:55:12;;;;;;;;;;;;;;;;;;5075461;28;20028;-38
2023/06/22 20:57:38;;;;;;;;;;;;;;;;;;5070797;28;19943;-38
2023/06/22 21:00:07;;;;;;;;;;;;;;;;;;5075476;28;19912;-38
2023/06/22 21:02:33;;;;;;;;;;;;;;;;;;5080355;28;19912;-38
2023/06/22 21:04:59;;;;;;;;;;;;;;;;;;5070069;28;19916;-38
2023/06/22 21:07:25;;;;;;;;;;;;;;;;;;5071637;28;19917;-38
2023/06/22 21:09:51;;;;;;;;;;;;;;;;;;5076792;28;20369;-38
2023/06/22 21:12:18;;;;;;;;;;;;;;;;;;5084512;28;19955;-38
2023/06/22 21:14:44;;;;;;;;;;;;;;;;;;5084369;28;19912;-38
2023/06/22 21:17:10;;;;;;;;;;;;;;;;;;5084241;28;19914;-38
2023/06/22 21:19:36;;;;;;;;;;;;;;;;;;5083076;28;20343;-38
2023/06/22 21:22:02;;;;;;;;;;;;;;;;;;5084901;28;20277;-38
2023/06/22 21:24:27;;;;;;;;;;;;;;;;;;5084663;28;19915;-38
2023/06/22 21:26:53;;;;;;;;;;;;;;;;;;5066986;28;19908;-38
2023/06/22 21:29:19;;;;;;;;;;;;;;;;;;5084546;28;19995;-39
2023/06/22 21:31:45;;;;;;;;;;;;;;;;;;5084398;28;20424;-38
2023/06/22 21:34:11;;;;;;;;;;;;;;;;;;5084287;28;20268;-38
2023/06/22 21:36:37;;;;;;;;;;;;;;;;;;5084498;28;19944;-38
2023/06/22 21:39:03;;;;;;;;;;;;;;;;;;5084645;28;19909;-38
2023/06/22 21:41:29;;;;;;;;;;;;;;;;;;5084020;28;19923;-38